createdAt,value
2018-04-25T00:01:55.289Z,13.60
2018-04-25T00:04:24.104Z,13.40
2018-04-25T00:06:52.166Z,13.40
2018-04-25T00:09:20.981Z,13.40
2018-04-25T00:11:49.109Z,13.30
2018-04-25T00:14:17.924Z,13.40
2018-04-25T00:16:45.964Z,13.50
2018-04-25T00:19:14.780Z,13.30
2018-04-25T00:21:42.827Z,13.30
2018-04-25T00:24:11.689Z,13.00
2018-04-25T00:26:39.693Z,13.00
2018-04-25T00:29:08.501Z,13.00
2018-04-25T00:31:36.560Z,12.90
2018-04-25T00:34:08.872Z,13.00
2018-04-25T00:36:36.983Z,13.00
2018-04-25T00:39:05.798Z,12.90
2018-04-25T00:41:33.860Z,12.90
2018-04-25T00:44:02.685Z,12.80
2018-04-25T00:46:30.720Z,12.80
2018-04-25T00:48:58.752Z,12.70
2018-04-25T00:51:26.798Z,12.60
2018-04-25T00:53:54.848Z,12.60
2018-04-25T00:56:22.897Z,12.50
2018-04-25T00:58:50.934Z,12.40
2018-04-25T01:01:18.980Z,12.30
2018-04-25T01:03:47.032Z,12.40
2018-04-25T01:06:15.137Z,12.50
2018-04-25T01:08:43.185Z,12.50
2018-04-25T01:11:12.383Z,12.40
2018-04-25T01:13:44.385Z,12.30
2018-04-25T01:16:12.732Z,12.20
2018-04-25T01:18:42.219Z,12.20
2018-04-25T01:21:10.266Z,12.20
2018-04-25T01:23:39.076Z,12.10
2018-04-25T01:26:14.811Z,12.10
2018-04-25T01:28:45.166Z,12.10
2018-04-25T01:56:10.717Z,11.90
2018-04-25T01:58:50.517Z,11.90
2018-04-25T02:01:19.792Z,11.90
2018-04-25T02:03:57.789Z,11.90
2018-04-25T02:06:25.879Z,11.90
2018-04-25T02:08:53.979Z,11.80
2018-04-25T02:11:22.080Z,11.90
2018-04-25T02:13:50.187Z,11.90
2018-04-25T02:16:18.281Z,12.00
2018-04-25T02:18:47.148Z,12.00
2018-04-25T02:21:15.254Z,11.90
2018-04-25T02:23:45.458Z,12.00
2018-04-25T02:26:14.868Z,11.90
2018-04-25T02:28:42.972Z,11.80
2018-04-25T02:31:11.828Z,11.80
2018-04-25T02:33:40.735Z,11.90
2018-04-25T02:36:09.862Z,11.90
2018-04-25T02:38:37.983Z,11.90
2018-04-25T02:41:06.074Z,11.90
2018-04-25T02:43:34.182Z,11.90
2018-04-25T02:46:03.038Z,11.90
2018-04-25T02:48:33.094Z,11.90
2018-04-25T02:51:01.178Z,12.00
2018-04-25T02:53:30.039Z,12.00
2018-04-25T02:55:58.156Z,12.00
2018-04-25T02:58:28.126Z,12.00
2018-04-25T03:00:56.229Z,12.00
2018-04-25T03:03:25.093Z,12.00
2018-04-25T03:05:53.268Z,12.00
2018-04-25T03:08:21.374Z,11.90
2018-04-25T03:10:49.511Z,12.00
2018-04-25T03:13:17.614Z,12.10
2018-04-25T03:15:46.583Z,12.20
2018-04-25T03:18:14.698Z,12.20
2018-04-25T03:20:43.551Z,12.20
2018-04-25T03:23:11.727Z,12.20
2018-04-25T03:25:39.814Z,12.30
2018-04-25T03:28:07.920Z,12.30
2018-04-25T03:30:36.038Z,12.30
2018-04-25T03:33:04.133Z,12.40
2018-04-25T03:35:32.267Z,12.40
2018-04-25T03:38:00.355Z,12.40
2018-04-25T03:40:29.232Z,12.50
2018-04-25T03:42:57.339Z,12.50
2018-04-25T03:45:25.442Z,12.60
2018-04-25T03:47:54.308Z,12.60
2018-04-25T03:50:22.410Z,12.60
2018-04-25T03:52:51.269Z,12.60
2018-04-25T03:55:19.383Z,12.60
2018-04-25T03:57:48.240Z,12.60
2018-04-25T04:00:16.351Z,12.60
2018-04-25T04:02:49.639Z,12.70
2018-04-25T04:05:18.507Z,12.90
2018-04-25T04:07:47.654Z,13.10
2018-04-25T04:10:18.332Z,13.10
2018-04-25T04:12:47.481Z,13.10
2018-04-25T04:18:19.296Z,13.20
2018-04-25T04:20:47.484Z,13.20
2018-04-25T04:23:16.101Z,13.20
2018-04-25T04:25:46.727Z,13.30
2018-04-25T04:28:14.932Z,13.30
2018-04-25T04:30:43.823Z,13.30
2018-04-25T04:33:12.000Z,13.40
2018-04-25T04:35:40.691Z,13.40
2018-04-25T04:38:09.921Z,13.40
2018-04-25T04:40:38.070Z,13.30
2018-04-25T04:43:07.375Z,13.40
2018-04-25T04:45:35.582Z,13.40
2018-04-25T04:48:03.741Z,13.50
2018-04-25T04:50:31.981Z,13.50
2018-04-25T04:53:00.874Z,13.60
2018-04-25T04:55:30.306Z,13.70
2018-04-25T04:57:58.695Z,13.70
2018-04-25T05:00:29.667Z,13.70
2018-04-25T05:02:58.485Z,13.70
2018-04-25T05:05:26.617Z,13.80
2018-04-25T05:07:54.807Z,14.00
2018-04-25T05:10:23.013Z,14.20
2018-04-25T05:12:51.139Z,14.20
2018-04-25T05:15:19.292Z,14.40
2018-04-25T05:17:47.707Z,14.40
2018-04-25T05:20:15.871Z,14.40
2018-04-25T05:22:44.038Z,14.50
2018-04-25T05:25:13.544Z,14.60
2018-04-25T05:27:41.716Z,14.60
2018-04-25T05:30:12.164Z,14.70
2018-04-25T05:32:41.323Z,14.70
2018-04-25T05:35:09.570Z,14.80
2018-04-25T05:37:43.702Z,14.80
2018-04-25T05:40:11.956Z,14.90
2018-04-25T05:42:40.151Z,14.90
2018-04-25T05:45:08.358Z,15.00
2018-04-25T05:47:37.667Z,15.10
2018-04-25T05:50:05.929Z,15.10
2018-04-25T05:52:34.223Z,15.30
2018-04-25T05:55:02.546Z,15.40
2018-04-25T05:57:30.716Z,15.40
2018-04-25T05:59:58.896Z,15.50
2018-04-25T06:02:27.220Z,15.60
2018-04-25T06:04:55.381Z,15.60
2018-04-25T06:07:23.587Z,15.80
2018-04-25T06:09:51.721Z,15.90
2018-04-25T06:12:20.990Z,16.00
2018-04-25T06:14:49.934Z,16.10
2018-04-25T06:17:18.108Z,16.10
2018-04-25T06:19:46.457Z,16.20
2018-04-25T06:22:14.573Z,16.20
2018-04-25T06:24:42.764Z,16.30
2018-04-25T06:27:11.758Z,16.40
2018-04-25T06:29:39.863Z,16.40
2018-04-25T06:32:07.969Z,16.50
2018-04-25T06:34:36.122Z,16.50
2018-04-25T06:37:04.274Z,16.50
2018-04-25T06:39:32.510Z,16.50
2018-04-25T06:42:00.629Z,16.60
2018-04-25T06:44:28.766Z,16.60
2018-04-25T06:46:58.404Z,16.70
2018-04-25T06:49:27.299Z,16.90
2018-04-25T06:51:56.197Z,16.90
2018-04-25T06:54:24.363Z,16.90
2018-04-25T06:56:53.238Z,17.10
2018-04-25T06:59:21.388Z,17.20
2018-04-25T07:01:49.512Z,17.20
2018-04-25T07:04:18.500Z,17.40
2018-04-25T07:06:47.379Z,17.40
2018-04-25T07:09:15.555Z,17.40
2018-04-25T07:11:43.645Z,17.50
2018-04-25T07:14:11.853Z,17.60
2018-04-25T07:16:39.915Z,17.70
2018-04-25T07:19:08.022Z,17.70
2018-04-25T07:21:36.107Z,17.70
2018-04-25T07:24:04.240Z,17.70
2018-04-25T07:26:32.341Z,17.80
2018-04-25T07:29:00.458Z,17.90
2018-04-25T07:31:29.342Z,18.00
2018-04-25T07:33:58.302Z,18.20
2018-04-25T07:36:26.433Z,18.10
2018-04-25T07:38:55.296Z,18.30
2018-04-25T07:41:23.411Z,18.30
2018-04-25T07:43:51.862Z,18.40
2018-04-25T07:46:19.988Z,18.40
2018-04-25T07:48:48.109Z,18.40
2018-04-25T07:51:16.230Z,18.40
2018-04-25T07:53:44.394Z,18.40
2018-04-25T07:56:13.264Z,18.40
2018-04-25T07:58:41.360Z,18.40
2018-04-25T08:01:09.464Z,18.40
2018-04-25T08:03:38.327Z,18.30
2018-04-25T08:06:06.530Z,18.30
2018-04-25T08:08:34.569Z,18.20
2018-04-25T08:11:03.464Z,18.30
2018-04-25T08:13:44.062Z,18.30
2018-04-25T08:16:23.894Z,18.30
2018-04-25T08:19:03.733Z,18.50
2018-04-25T08:21:41.428Z,18.50
2018-04-25T08:24:10.303Z,18.60
2018-04-25T08:26:38.400Z,18.60
2018-04-25T08:29:07.409Z,18.70
2018-04-25T08:31:35.512Z,18.70
2018-04-25T08:34:03.638Z,18.90
2018-04-25T08:36:32.520Z,19.10
2018-04-25T08:39:01.437Z,19.20
2018-04-25T08:41:30.296Z,19.40
2018-04-25T08:43:58.407Z,19.40
2018-04-25T08:46:26.516Z,19.60
2018-04-25T08:48:54.640Z,19.80
2018-04-25T08:51:23.513Z,19.90
2018-04-25T08:53:51.658Z,19.90
2018-04-25T08:56:20.533Z,20.00
2018-04-25T08:58:48.636Z,20.00
2018-04-25T09:01:16.756Z,20.10
2018-04-25T09:03:45.614Z,20.10
2018-04-25T09:06:13.725Z,20.00
2018-04-25T09:08:42.592Z,20.20
2018-04-25T09:11:10.692Z,20.10
2018-04-25T09:13:38.809Z,20.20
2018-04-25T09:16:06.910Z,20.20
2018-04-25T09:18:35.036Z,20.20
2018-04-25T09:21:03.164Z,20.00
2018-04-25T09:23:32.385Z,20.10
2018-04-25T09:26:01.271Z,20.00
2018-04-25T09:28:30.212Z,20.00
2018-04-25T09:30:58.338Z,20.00
2018-04-25T09:33:26.455Z,21.30
2018-04-25T09:35:54.579Z,23.80
2018-04-25T09:38:22.843Z,25.00
2018-04-25T09:40:50.960Z,27.00
2018-04-25T09:43:19.835Z,30.50
2018-04-25T09:45:47.996Z,30.40
2018-04-25T09:48:16.098Z,29.20
2018-04-25T09:50:45.103Z,27.10
2018-04-25T09:53:13.984Z,26.20
2018-04-25T09:55:42.434Z,26.20
2018-04-25T09:58:10.540Z,25.00
2018-04-25T10:00:44.950Z,26.80
2018-04-25T10:03:22.172Z,26.80
2018-04-25T10:05:50.216Z,27.50
2018-04-25T10:08:18.265Z,27.00
2018-04-25T10:10:47.141Z,24.80
2018-04-25T10:13:15.129Z,24.80
2018-04-25T10:15:43.948Z,23.50
2018-04-25T10:18:11.987Z,23.50
2018-04-25T10:20:40.836Z,22.30
2018-04-25T10:23:08.931Z,22.20
2018-04-25T10:25:37.011Z,22.40
2018-04-25T10:28:05.033Z,22.30
2018-04-25T10:30:33.087Z,22.00
2018-04-25T10:33:01.144Z,22.00
2018-04-25T10:35:29.189Z,22.00
2018-04-25T10:37:57.228Z,21.60
2018-04-25T10:40:25.350Z,21.30
2018-04-25T10:42:53.336Z,21.40
2018-04-25T10:45:21.381Z,21.60
2018-04-25T10:47:49.492Z,21.60
2018-04-25T10:50:17.535Z,21.50
2018-04-25T10:52:46.342Z,21.80
2018-04-25T10:55:14.417Z,21.80
2018-04-25T10:57:42.437Z,21.90
2018-04-25T11:00:10.488Z,21.80
2018-04-25T11:02:38.548Z,21.80
2018-04-25T11:05:06.589Z,22.00
2018-04-25T11:07:35.757Z,22.00
2018-04-25T11:10:03.796Z,22.10
2018-04-25T11:12:31.882Z,22.00
2018-04-25T11:14:59.924Z,22.20
2018-04-25T11:17:27.973Z,22.40
2018-04-25T11:19:56.012Z,22.40
2018-04-25T11:22:24.835Z,22.50
2018-04-25T11:24:52.867Z,22.50
2018-04-25T11:27:21.685Z,22.20
2018-04-25T11:29:49.728Z,22.10
2018-04-25T11:32:17.769Z,22.20
2018-04-25T11:34:45.815Z,22.00
2018-04-25T11:37:13.866Z,21.90
2018-04-25T11:39:41.907Z,21.90
2018-04-25T11:42:10.712Z,22.00
2018-04-25T11:44:38.764Z,22.00
2018-04-25T11:47:06.852Z,21.90
2018-04-25T11:49:34.862Z,21.90
2018-04-25T11:52:02.899Z,22.00
2018-04-25T11:54:30.946Z,22.20
2018-04-25T11:56:59.003Z,22.00
2018-04-25T11:59:27.044Z,22.10
2018-04-25T12:01:55.084Z,22.00
2018-04-25T12:04:23.123Z,22.00
2018-04-25T12:06:51.173Z,22.40
2018-04-25T12:09:19.237Z,22.20
2018-04-25T12:11:47.275Z,22.40
2018-04-25T12:14:15.317Z,22.60
2018-04-25T12:16:44.133Z,22.90
2018-04-25T12:19:12.172Z,22.90
2018-04-25T12:21:40.989Z,23.20
2018-04-25T12:24:09.032Z,23.10
2018-04-25T12:26:37.864Z,23.10
2018-04-25T12:29:05.907Z,23.10
2018-04-25T12:31:33.949Z,23.00
2018-04-25T12:34:02.019Z,22.80
2018-04-25T12:36:30.180Z,23.00
2018-04-25T12:38:58.233Z,22.90
2018-04-25T12:41:26.287Z,23.10
2018-04-25T12:43:54.328Z,22.90
2018-04-25T12:46:22.391Z,23.10
2018-04-25T12:48:50.427Z,23.10
2018-04-25T12:51:18.511Z,23.10
2018-04-25T12:53:46.541Z,23.40
2018-04-25T12:56:14.592Z,23.20
2018-04-25T12:58:42.649Z,23.10
2018-04-25T13:01:11.465Z,23.70
2018-04-25T13:03:41.004Z,23.70
2018-04-25T13:06:09.052Z,23.60
2018-04-25T13:08:37.120Z,23.50
2018-04-25T13:11:05.156Z,23.50
2018-04-25T13:13:33.963Z,22.80
2018-04-25T13:16:02.013Z,22.80
2018-04-25T13:18:30.864Z,22.90
2018-04-25T13:20:58.920Z,22.90
2018-04-25T13:23:26.965Z,22.80
2018-04-25T13:25:55.761Z,23.20
2018-04-25T13:28:23.812Z,23.20
2018-04-25T13:30:52.629Z,23.20
2018-04-25T13:33:20.664Z,23.20
2018-04-25T13:35:49.594Z,23.10
2018-04-25T13:38:17.636Z,23.10
2018-04-25T13:40:45.684Z,23.10
2018-04-25T13:43:13.719Z,23.20
2018-04-25T13:45:41.781Z,23.60
2018-04-25T13:48:10.580Z,23.90
2018-04-25T13:50:38.629Z,23.90
2018-04-25T13:53:06.682Z,23.90
2018-04-25T13:55:34.732Z,23.80
2018-04-25T13:58:03.555Z,24.00
2018-04-25T14:00:31.588Z,23.90
2018-04-25T14:03:00.416Z,23.70
2018-04-25T14:05:28.460Z,23.70
2018-04-25T14:07:56.500Z,23.80
2018-04-25T14:10:24.537Z,24.10
2018-04-25T14:12:52.579Z,24.50
2018-04-25T14:15:20.628Z,24.50
2018-04-25T14:17:49.435Z,23.40
2018-04-25T14:20:17.482Z,23.30
2018-04-25T14:22:45.534Z,23.00
2018-04-25T14:25:18.580Z,22.90
2018-04-25T14:27:46.629Z,22.80
2018-04-25T14:30:15.438Z,22.40
2018-04-25T14:32:43.507Z,22.40
2018-04-25T14:35:11.577Z,22.30
2018-04-25T14:37:39.623Z,22.20
2018-04-25T14:40:07.669Z,22.10
2018-04-25T14:42:35.756Z,22.20
2018-04-25T14:45:03.801Z,22.20
2018-04-25T14:47:31.856Z,22.20
2018-04-25T14:49:59.907Z,22.00
2018-04-25T14:52:27.952Z,21.90
2018-04-25T14:54:56.768Z,21.60
2018-04-25T14:57:24.820Z,21.60
2018-04-25T14:59:52.885Z,21.40
2018-04-25T15:02:21.692Z,21.40
2018-04-25T15:04:50.514Z,21.40
2018-04-25T15:07:18.564Z,21.40
2018-04-25T15:09:46.609Z,21.60
2018-04-25T15:12:14.649Z,21.40
2018-04-25T15:14:42.697Z,21.20
2018-04-25T15:17:10.739Z,21.00
2018-04-25T15:19:38.807Z,21.30
2018-04-25T15:22:06.832Z,21.60
2018-04-25T15:24:34.886Z,21.80
2018-04-25T15:27:02.921Z,22.00
2018-04-25T15:29:30.975Z,21.80
2018-04-25T15:31:59.016Z,21.50
2018-04-25T15:34:27.065Z,21.20
2018-04-25T15:36:55.104Z,21.10
2018-04-25T15:39:23.156Z,20.80
2018-04-25T15:41:51.196Z,20.80
2018-04-25T15:44:19.249Z,20.50
2018-04-25T15:46:47.322Z,20.40
2018-04-25T15:49:15.416Z,20.20
2018-04-25T15:51:43.561Z,20.40
2018-04-25T15:54:11.631Z,20.70
2018-04-25T15:56:39.775Z,20.80
2018-04-25T15:59:07.824Z,20.80
2018-04-25T16:01:35.874Z,20.80
2018-04-25T16:04:03.917Z,20.60
2018-04-25T16:06:31.968Z,20.50
2018-04-25T16:09:00.022Z,20.20
2018-04-25T16:11:28.072Z,20.00
2018-04-25T16:13:56.888Z,19.90
2018-04-25T16:16:24.929Z,19.90
2018-04-25T16:18:53.795Z,19.80
2018-04-25T16:21:22.002Z,19.70
2018-04-25T16:23:50.024Z,19.80
2018-04-25T16:26:18.076Z,19.90
2018-04-25T16:28:46.243Z,19.70
2018-04-25T16:31:14.329Z,19.70
2018-04-25T16:33:42.372Z,19.70
2018-04-25T16:36:10.503Z,19.50
2018-04-25T16:38:38.535Z,19.60
2018-04-25T16:41:06.556Z,19.60
2018-04-25T16:43:34.618Z,19.40
2018-04-25T16:46:02.744Z,19.40
2018-04-25T16:48:30.820Z,19.50
2018-04-25T16:50:58.912Z,19.50
2018-04-25T16:53:26.937Z,19.50
2018-04-25T16:55:54.991Z,19.40
2018-04-25T16:58:23.804Z,19.30
2018-04-25T17:00:51.837Z,19.30
2018-04-25T17:03:20.656Z,19.20
2018-04-25T17:05:48.729Z,19.20
2018-04-25T17:08:16.772Z,19.10
2018-04-25T17:10:45.588Z,19.10
2018-04-25T17:13:15.168Z,19.10
2018-04-25T17:15:43.996Z,19.20
2018-04-25T17:18:12.076Z,19.10
2018-04-25T17:20:40.553Z,19.20
2018-04-25T17:23:08.604Z,19.20
2018-04-25T17:25:36.657Z,19.10
2018-04-25T17:28:05.465Z,18.90
2018-04-25T17:30:33.504Z,18.90
2018-04-25T17:33:02.311Z,19.10
2018-04-25T17:35:30.352Z,19.00
2018-04-25T17:37:58.400Z,19.10
2018-04-25T17:40:26.485Z,19.20
2018-04-25T17:42:55.595Z,19.20
2018-04-25T17:45:24.315Z,19.10
2018-04-25T17:47:52.383Z,19.10
2018-04-25T17:50:20.469Z,19.10
2018-04-25T17:52:48.513Z,19.10
2018-04-25T17:55:17.377Z,18.90
2018-04-25T17:57:45.419Z,18.90
2018-04-25T18:00:13.473Z,18.90
2018-04-25T18:02:41.517Z,18.80
2018-04-25T18:05:09.584Z,18.60
2018-04-25T18:07:37.680Z,18.50
2018-04-25T18:10:05.755Z,18.50
2018-04-25T18:12:33.788Z,18.50
2018-04-25T18:15:07.437Z,18.50
2018-04-25T18:17:35.625Z,18.60
2018-04-25T18:20:03.677Z,18.50
2018-04-25T18:22:31.733Z,18.50
2018-04-25T18:24:59.801Z,18.40
2018-04-25T18:27:27.844Z,18.40
2018-04-25T18:29:56.656Z,18.30
2018-04-25T18:32:26.730Z,18.30
2018-04-25T18:34:56.756Z,18.20
2018-04-25T18:37:24.887Z,18.10
2018-04-25T18:39:52.861Z,18.10
2018-04-25T18:42:20.912Z,18.00
2018-04-25T18:44:48.967Z,18.00
2018-04-25T18:47:17.008Z,17.90
2018-04-25T18:49:45.050Z,18.00
2018-04-25T18:52:13.420Z,17.90
2018-04-25T18:54:43.402Z,17.90
2018-04-25T18:57:11.467Z,17.80
2018-04-25T18:59:39.504Z,17.80
2018-04-25T19:02:07.560Z,17.60
2018-04-25T19:04:35.599Z,17.50
2018-04-25T19:07:03.649Z,17.40
2018-04-25T19:09:32.450Z,17.20
2018-04-25T19:12:00.492Z,17.20
2018-04-25T19:14:29.301Z,17.10
2018-04-25T19:16:58.104Z,17.00
2018-04-25T19:19:26.143Z,17.00
2018-04-25T19:21:54.972Z,16.90
2018-04-25T19:24:23.017Z,16.90
2018-04-25T19:26:51.088Z,17.00
2018-04-25T19:29:19.893Z,17.00
2018-04-25T19:31:48.033Z,16.90
2018-04-25T19:34:16.092Z,16.80
2018-04-25T19:36:44.154Z,16.80
2018-04-25T19:39:12.257Z,16.70
2018-04-25T19:41:40.308Z,16.60
2018-04-25T19:44:08.365Z,16.50
2018-04-25T19:46:36.417Z,16.40
2018-04-25T19:49:04.521Z,16.40
2018-04-25T19:51:32.687Z,16.60
2018-04-25T19:54:00.753Z,16.70
2018-04-25T19:56:29.857Z,16.70
2018-04-25T19:58:57.917Z,16.60
2018-04-25T20:01:26.038Z,16.50
2018-04-25T20:03:54.100Z,16.40
2018-04-25T20:06:22.142Z,16.40
2018-04-25T20:08:50.215Z,16.40
2018-04-25T20:11:18.274Z,16.50
2018-04-25T20:13:46.404Z,16.40
2018-04-25T20:16:14.377Z,16.50
2018-04-25T20:18:42.442Z,16.50
2018-04-25T20:21:10.484Z,16.40
2018-04-25T20:23:38.617Z,16.40
2018-04-25T20:26:06.669Z,16.40
2018-04-25T20:28:34.712Z,16.20
2018-04-25T20:31:02.763Z,16.20
2018-04-25T20:33:31.696Z,16.40
2018-04-25T20:35:59.755Z,16.40
2018-04-25T20:38:27.825Z,16.40
2018-04-25T20:40:55.867Z,16.30
2018-04-25T20:43:24.685Z,16.30
2018-04-25T20:45:52.732Z,16.30
2018-04-25T20:48:21.553Z,16.30
2018-04-25T20:50:49.597Z,16.30
2018-04-25T20:53:17.662Z,16.20
2018-04-25T20:55:45.704Z,16.10
2018-04-25T20:58:13.760Z,16.10
2018-04-25T21:00:41.842Z,16.00
2018-04-25T21:03:09.980Z,16.00
2018-04-25T21:05:38.044Z,16.00
2018-04-25T21:08:09.258Z,16.00
2018-04-25T21:10:38.076Z,15.90
2018-04-25T21:13:06.145Z,15.80
2018-04-25T21:15:34.204Z,15.70
2018-04-25T21:18:03.053Z,15.90
2018-04-25T21:20:31.105Z,15.80
2018-04-25T21:22:59.165Z,15.80
2018-04-25T21:25:27.299Z,15.80
2018-04-25T21:27:55.389Z,15.80
2018-04-25T21:30:23.457Z,15.80
2018-04-25T21:32:51.492Z,15.80
2018-04-25T21:35:19.538Z,15.80
2018-04-25T21:37:47.576Z,15.80
2018-04-25T21:40:15.621Z,15.80
2018-04-25T21:42:44.437Z,15.80
2018-04-25T21:45:12.529Z,15.80
2018-04-25T21:47:40.593Z,15.70
2018-04-25T21:50:08.694Z,15.70
2018-04-25T21:52:36.749Z,15.60
2018-04-25T21:55:04.806Z,15.30
2018-04-25T21:57:32.860Z,15.20
2018-04-25T22:00:00.900Z,15.10
2018-04-25T22:02:29.718Z,15.20
2018-04-25T22:04:57.762Z,15.20
2018-04-25T22:07:26.633Z,15.10
2018-04-25T22:09:54.679Z,15.10
2018-04-25T22:12:22.728Z,15.00
2018-04-25T22:14:51.899Z,15.00
2018-04-25T22:17:20.705Z,15.00
2018-04-25T22:19:49.667Z,14.90
2018-04-25T22:22:17.920Z,15.00
2018-04-25T22:24:45.957Z,14.90
2018-04-25T22:27:13.980Z,14.90
2018-04-25T22:29:42.804Z,14.70
2018-04-25T22:32:10.915Z,14.70
2018-04-25T22:34:38.952Z,14.80
2018-04-25T22:37:07.005Z,14.80
2018-04-25T22:39:35.047Z,14.80
2018-04-25T22:42:03.103Z,14.80
2018-04-25T22:44:31.143Z,14.80
2018-04-25T22:46:59.269Z,14.70
2018-04-25T22:49:28.071Z,14.70
2018-04-25T22:51:56.132Z,14.70
2018-04-25T22:54:24.943Z,14.80
2018-04-25T22:56:53.004Z,14.80
2018-04-25T22:59:21.808Z,14.90
2018-04-25T23:01:49.851Z,14.90
2018-04-25T23:04:18.661Z,15.10
2018-04-25T23:06:46.714Z,15.10
2018-04-25T23:09:16.716Z,15.10
2018-04-25T23:11:44.765Z,15.20
2018-04-25T23:14:12.805Z,15.20
2018-04-25T23:16:40.851Z,15.00
2018-04-25T23:19:08.902Z,14.80
2018-04-25T23:21:37.720Z,14.70
2018-04-25T23:24:05.764Z,14.70
2018-04-25T23:26:34.584Z,14.50
2018-04-25T23:29:02.633Z,14.50
2018-04-25T23:31:31.440Z,14.40
2018-04-25T23:33:59.489Z,14.40
2018-04-25T23:36:27.540Z,14.20
2018-04-25T23:38:55.587Z,14.10
2018-04-25T23:41:23.692Z,13.90
2018-04-25T23:43:52.520Z,13.70
2018-04-25T23:46:20.614Z,13.60
2018-04-25T23:48:48.728Z,13.60
2018-04-25T23:51:17.533Z,13.70
2018-04-25T23:53:45.568Z,13.60
2018-04-25T23:56:13.616Z,13.70
2018-04-25T23:58:41.657Z,13.70
